KDFI/DFI METAR and TAF weather

Enter ICAO airport designator
Station Type Date Time Source
KDFI METAR 2021/06/22 22:53 UTC NOAA

KDFI 222253Z AUTO 27005KT 10SM CLR 21/06 A2998 RMK AO2 SLP149 T02110061


Station Type Date Time Source
KDFI Decoded METAR 2021/06/22 22:53 UTC NOAA

DEFIANCE MEMORIAL AIRPORT, OH, United States (KDFI) 41-20N 84-26W 219M
Jun 22, 2021 - 06:53 PM EDT / 2021.06.22 2253 UTC
Wind: from the W (270 degrees) at 6 MPH (5 KT):0
Visibility: 10 mile(s):0
Sky conditions: clear
Temperature: 70.0 F (21.1 C)
Dew Point: 43.0 F (6.1 C)
Relative Humidity: 37%
Pressure (altimeter): 29.98 in. Hg (1015 hPa)
ob: KDFI 222253Z AUTO 27005KT 10SM CLR 21/06 A2998 RMK AO2 SLP149 T02110061
cycle: 23

Station Type Date Time Source
KDFI TAF UTC NOAA

Error!

Example: see airport list